Time;durP1;ratioP1;P1;durP2;ratioP2;P2;SDS_P1;SDS_P2;PMS_P1;PMS_P2;Temp;Humidity;BMP_temperature;BMP_pressure;BME280_temperature;BME280_humidity;BME280_pressure;Samples;Min_cycle;Max_cycle;Signal;HPM_P1;HPM_P2
2022/11/29 00:48:59;;;;;;;37.43;16.20;;;;;;;;;;6121008;23;20312;-93
2022/11/29 00:52:05;;;;;;;37.67;16.13;;;;;;;;;;6153757;23;20611;-91
2022/11/29 00:55:11;;;;;;;37.90;15.77;;;;;;;;;;6154421;23;20173;-93
2022/11/29 00:58:17;;;;;;;36.43;15.43;;;;;;;;;;6155002;23;20693;-91
2022/11/29 01:01:22;;;;;;;33.90;15.47;;;;;;;;;;6153407;23;20213;-92
2022/11/29 01:04:29;;;;;;;38.33;16.57;;;;;;;;;;6153331;23;20165;-92
2022/11/29 01:07:34;;;;;;;35.53;15.50;;;;;;;;;;6152569;23;20629;-92
2022/11/29 01:10:41;;;;;;;35.20;15.87;;;;;;;;;;6154528;23;20172;-93
2022/11/29 01:13:46;;;;;;;35.60;16.20;;;;;;;;;;6153518;23;20169;-93
2022/11/29 01:16:52;;;;;;;38.53;16.57;;;;;;;;;;6153834;23;20238;-92
2022/11/29 01:19:58;;;;;;;36.93;16.20;;;;;;;;;;6153803;23;20177;-93
2022/11/29 01:23:04;;;;;;;32.37;15.07;;;;;;;;;;6154013;23;20164;-91
2022/11/29 01:26:10;;;;;;;32.00;14.80;;;;;;;;;;6155155;23;20176;-93
2022/11/29 01:29:15;;;;;;;33.17;15.47;;;;;;;;;;6154754;23;20172;-91
2022/11/29 01:32:20;;;;;;;34.80;15.73;;;;;;;;;;6154562;23;20172;-93
2022/11/29 01:35:27;;;;;;;31.43;14.70;;;;;;;;;;6155884;23;20253;-93
2022/11/29 01:38:32;;;;;;;34.57;15.03;;;;;;;;;;6154926;23;20495;-91
2022/11/29 01:41:38;;;;;;;35.03;15.10;;;;;;;;;;6154274;23;20193;-93
2022/11/29 01:45:04;;;;;;;30.20;14.50;;;;;;;;;;6153836;23;20161;-93
2022/11/29 01:48:10;;;;;;;36.80;15.27;;;;;;;;;;6153318;23;20204;-92
2022/11/29 01:51:17;;;;;;;32.87;15.13;;;;;;;;;;6153436;23;20196;-93
2022/11/29 01:54:22;;;;;;;38.20;14.80;;;;;;;;;;6154591;23;20244;-92
2022/11/29 01:57:28;;;;;;;34.57;15.03;;;;;;;;;;6154778;23;20192;-93
2022/11/29 02:00:34;;;;;;;28.57;14.27;;;;;;;;;;6152967;23;20172;-93
2022/11/29 02:03:39;;;;;;;32.10;14.90;;;;;;;;;;6152460;23;20250;-93
2022/11/29 02:06:46;;;;;;;38.63;15.97;;;;;;;;;;6153905;23;20180;-93
2022/11/29 02:09:52;;;;;;;32.70;14.70;;;;;;;;;;6152649;23;20224;-93
2022/11/29 02:13:01;;;;;;;35.23;14.97;;;;;;;;;;6151042;23;20167;-93
2022/11/29 02:16:09;;;;;;;37.43;15.50;;;;;;;;;;6151788;23;20668;-94
2022/11/29 02:19:25;;;;;;;35.27;16.33;;;;;;;;;;6168985;23;20176;-92
2022/11/29 02:22:34;;;;;;;39.77;16.93;;;;;;;;;;6152928;23;20196;-93
2022/11/29 02:25:47;;;;;;;34.87;16.23;;;;;;;;;;6151597;23;20174;-93
2022/11/29 02:29:08;;;;;;;35.63;16.70;;;;;;;;;;6152738;23;20161;-92
2022/11/29 02:32:36;;;;;;;41.93;17.83;;;;;;;;;;6151011;23;20210;-93
2022/11/29 02:35:59;;;;;;;36.90;16.63;;;;;;;;;;6151681;23;20192;-93
2022/11/29 02:39:15;;;;;;;39.57;17.17;;;;;;;;;;6149353;23;20492;-93
2022/11/29 02:42:49;;;;;;;39.20;16.90;;;;;;;;;;6150219;23;20173;-93
2022/11/29 02:46:03;;;;;;;44.00;17.43;;;;;;;;;;6152271;23;20153;-93
2022/11/29 02:49:14;;;;;;;36.63;16.67;;;;;;;;;;6151894;23;20416;-92
2022/11/29 02:52:21;;;;;;;38.93;16.37;;;;;;;;;;6152147;23;20173;-93
2022/11/29 02:55:29;;;;;;;35.50;16.17;;;;;;;;;;6150405;23;20153;-94
2022/11/29 02:58:38;;;;;;;37.97;16.43;;;;;;;;;;6150533;23;20222;-93
2022/11/29 03:01:47;;;;;;;35.37;16.03;;;;;;;;;;6153155;23;20181;-93
2022/11/29 03:04:59;;;;;;;41.73;17.10;;;;;;;;;;6152538;23;20171;-93
2022/11/29 03:08:08;;;;;;;34.27;15.47;;;;;;;;;;6151103;23;20184;-93
2022/11/29 03:11:18;;;;;;;35.60;16.37;;;;;;;;;;6153362;23;20173;-93
2022/11/29 03:14:25;;;;;;;39.13;16.97;;;;;;;;;;6153654;23;20168;-91
2022/11/29 03:17:32;;;;;;;40.77;16.67;;;;;;;;;;6154209;23;20165;-93
2022/11/29 03:20:46;;;;;;;36.80;16.70;;;;;;;;;;6153913;23;20608;-93
2022/11/29 03:23:51;;;;;;;40.00;16.53;;;;;;;;;;6153657;23;20213;-92
2022/11/29 03:27:00;;;;;;;37.83;16.37;;;;;;;;;;6153491;23;20200;-95
2022/11/29 03:30:08;;;;;;;38.70;15.93;;;;;;;;;;6154539;23;20169;-93
2022/11/29 03:33:17;;;;;;;36.10;15.97;;;;;;;;;;6153636;23;20172;-93
2022/11/29 03:36:30;;;;;;;40.20;17.00;;;;;;;;;;6153717;23;20171;-94
2022/11/29 03:39:39;;;;;;;35.70;16.50;;;;;;;;;;6155741;23;20156;-93
2022/11/29 03:42:50;;;;;;;37.20;16.93;;;;;;;;;;6155751;23;20280;-93
2022/11/29 03:46:09;;;;;;;32.17;16.57;;;;;;;;;;6156761;23;20218;-93
2022/11/29 03:49:17;;;;;;;38.40;16.40;;;;;;;;;;6154695;23;20169;-93
2022/11/29 03:52:27;;;;;;;36.73;17.00;;;;;;;;;;6134481;23;20201;-94
2022/11/29 03:55:46;;;;;;;38.20;16.53;;;;;;;;;;6148623;23;20199;-93
2022/11/29 03:58:55;;;;;;;39.37;17.07;;;;;;;;;;6063818;23;20216;-91
2022/11/29 04:02:10;;;;;;;41.17;16.57;;;;;;;;;;5953024;23;20579;-93
2022/11/29 04:05:31;;;;;;;37.27;16.00;;;;;;;;;;5997780;23;20219;-92
2022/11/29 04:08:51;;;;;;;35.73;17.47;;;;;;;;;;5997385;23;20251;-92
2022/11/29 04:12:09;;;;;;;39.00;16.97;;;;;;;;;;5998372;23;20613;-91
2022/11/29 04:15:31;;;;;;;44.10;18.37;;;;;;;;;;5997219;23;20214;-92
2022/11/29 04:18:43;;;;;;;46.70;19.17;;;;;;;;;;5997226;23;20218;-92
2022/11/29 04:22:03;;;;;;;38.73;17.87;;;;;;;;;;5998233;23;20173;-91
2022/11/29 04:25:22;;;;;;;37.77;16.33;;;;;;;;;;5997592;23;20245;-91
2022/11/29 04:28:46;;;;;;;38.23;17.53;;;;;;;;;;5995963;23;20196;-92
2022/11/29 04:32:04;;;;;;;37.27;17.17;;;;;;;;;;5997812;23;20180;-90
2022/11/29 04:35:17;;;;;;;36.90;16.57;;;;;;;;;;5998467;23;20173;-92
2022/11/29 04:38:40;;;;;;;34.70;16.70;;;;;;;;;;5998856;23;20174;-92
2022/11/29 04:41:59;;;;;;;41.53;17.73;;;;;;;;;;5996908;23;20229;-91
2022/11/29 04:45:26;;;;;;;39.27;16.77;;;;;;;;;;5998460;23;20222;-92
2022/11/29 04:48:58;;;;;;;36.30;17.20;;;;;;;;;;5984971;23;20212;-91
2022/11/29 04:52:17;;;;;;;34.60;16.23;;;;;;;;;;5955432;24;20192;-91
2022/11/29 04:55:28;;;;;;;38.60;16.57;;;;;;;;;;5998103;23;20164;-92
2022/11/29 04:58:37;;;;;;;34.33;16.30;;;;;;;;;;5998606;23;20177;-92
2022/11/29 05:01:49;;;;;;;40.50;17.30;;;;;;;;;;6003991;23;20220;-93
2022/11/29 05:04:59;;;;;;;40.20;16.63;;;;;;;;;;6009349;23;20168;-91
2022/11/29 05:08:24;;;;;;;37.13;16.77;;;;;;;;;;6010344;23;20203;-91
2022/11/29 05:11:39;;;;;;;41.00;17.80;;;;;;;;;;6027146;23;20172;-93
2022/11/29 05:18:25;;;;;;;40.47;17.80;;;;;;;;;;6009580;23;20180;-92
2022/11/29 05:21:36;;;;;;;39.73;18.30;;;;;;;;;;6009205;23;20172;-94
2022/11/29 05:24:46;;;;;;;41.67;18.03;;;;;;;;;;6026358;23;20156;-91
2022/11/29 05:27:56;;;;;;;41.63;18.23;;;;;;;;;;6010440;23;20200;-94
2022/11/29 05:31:19;;;;;;;39.63;17.93;;;;;;;;;;6026104;23;20208;-93
2022/11/29 05:34:45;;;;;;;37.10;17.77;;;;;;;;;;6009556;23;20171;-92
2022/11/29 05:37:52;;;;;;;38.67;17.27;;;;;;;;;;6013463;23;20497;-92
2022/11/29 05:41:07;;;;;;;32.93;16.83;;;;;;;;;;6011467;23;20172;-91
2022/11/29 05:44:14;;;;;;;40.23;17.50;;;;;;;;;;6009507;23;20168;-91
2022/11/29 05:47:24;;;;;;;39.20;17.80;;;;;;;;;;6026697;23;20164;-93
2022/11/29 05:50:31;;;;;;;39.63;17.90;;;;;;;;;;6011837;23;20229;-93
2022/11/29 05:53:49;;;;;;;39.90;18.23;;;;;;;;;;6011852;23;20184;-90
2022/11/29 05:57:00;;;;;;;39.80;17.70;;;;;;;;;;6011882;23;20248;-92
2022/11/29 06:00:07;;;;;;;37.00;16.97;;;;;;;;;;6028286;23;20181;-92
2022/11/29 06:03:25;;;;;;;40.17;17.47;;;;;;;;;;6114947;23;20201;-94
2022/11/29 06:06:38;;;;;;;37.03;16.50;;;;;;;;;;6116367;23;20628;-92
2022/11/29 06:09:48;;;;;;;37.87;16.50;;;;;;;;;;6115197;23;20217;-93
2022/11/29 06:13:03;;;;;;;36.53;16.67;;;;;;;;;;6114876;23;20220;-91
2022/11/29 06:16:18;;;;;;;36.37;16.57;;;;;;;;;;6117658;23;20198;-92
2022/11/29 06:23:12;;;;;;;38.17;18.13;;;;;;;;;;6099567;23;20213;-91
2022/11/29 06:26:33;;;;;;;32.77;16.27;;;;;;;;;;6115367;23;20236;-93
2022/11/29 06:29:46;;;;;;;40.73;18.17;;;;;;;;;;6115840;23;20202;-94
2022/11/29 06:33:06;;;;;;;34.33;16.20;;;;;;;;;;6119970;23;20239;-92
2022/11/29 06:36:17;;;;;;;36.43;16.67;;;;;;;;;;6117068;23;20238;-93
2022/11/29 06:39:27;;;;;;;35.27;16.43;;;;;;;;;;6119261;23;20154;-91
2022/11/29 06:42:33;;;;;;;38.10;18.03;;;;;;;;;;6115634;23;20177;-93
2022/11/29 06:46:01;;;;;;;40.73;18.33;;;;;;;;;;6116671;23;20193;-95
2022/11/29 09:56:43;;;;;;;41.27;19.47;;;;;;;;;;6178754;23;20196;-93
2022/11/29 09:59:50;;;;;;;39.73;18.47;;;;;;;;;;6188757;23;20160;-92
2022/11/29 10:03:01;;;;;;;41.07;19.20;;;;;;;;;;6190355;23;20159;-91
2022/11/29 10:06:10;;;;;;;40.33;19.17;;;;;;;;;;6191019;23;20168;-93
2022/11/29 10:09:17;;;;;;;41.77;19.80;;;;;;;;;;6188220;23;20271;-92
2022/11/29 10:12:33;;;;;;;40.27;19.87;;;;;;;;;;6191004;23;20164;-92
2022/11/29 19:18:31;;;;;;;99.63;32.77;;;;;;;;;;6196250;23;20212;-92
2022/11/29 19:21:38;;;;;;;95.37;33.47;;;;;;;;;;6214292;23;20147;-91
2022/11/29 19:24:43;;;;;;;92.13;32.23;;;;;;;;;;6214492;23;20223;-93
2022/11/29 19:27:49;;;;;;;75.57;27.60;;;;;;;;;;6213393;23;20172;-95
2022/11/29 19:30:54;;;;;;;58.93;24.10;;;;;;;;;;6213431;23;20582;-92
2022/11/29 19:34:02;;;;;;;55.63;20.13;;;;;;;;;;6213390;23;20167;-91
2022/11/29 19:37:14;;;;;;;47.13;18.53;;;;;;;;;;6216007;23;20172;-92
2022/11/29 19:40:25;;;;;;;42.57;17.00;;;;;;;;;;6214728;23;20221;-94
2022/11/29 23:45:22;;;;;;;42.53;15.50;;;;;;;;;;6173190;23;20189;-93
2022/11/29 23:48:27;;;;;;;39.20;14.27;;;;;;;;;;6173756;23;20177;-89
2022/11/29 23:51:32;;;;;;;38.10;14.37;;;;;;;;;;6175745;23;20185;-92
2022/11/29 23:54:42;;;;;;;41.57;15.17;;;;;;;;;;6176546;23;20189;-93
2022/11/29 23:57:56;;;;;;;42.23;16.23;;;;;;;;;;6160784;23;20172;-93
